Time;durP1;ratioP1;P1;durP2;ratioP2;P2;SDS_P1;SDS_P2;PMS_P1;PMS_P2;Temp;Humidity;BMP_temperature;BMP_pressure;BME280_temperature;BME280_humidity;BME280_pressure;Samples;Min_cycle;Max_cycle;Signal;HPM_P1;HPM_P2
2022/03/05 00:01:31;;;;;;;0.13;0.13;;;-1.30;1.00;226.50;231333.00;;;;5079358;28;20209;-69
2022/03/05 00:03:59;;;;;;;0.20;0.20;;;-1.40;1.00;226.50;231333.00;;;;5076528;28;20247;-69
2022/03/05 00:06:27;;;;;;;0.20;0.20;;;-1.40;1.00;226.50;231333.00;;;;5071779;28;20197;-68
2022/03/05 00:08:55;;;;;;;0.20;0.20;;;-1.30;1.00;226.50;231333.00;;;;5071496;28;20303;-68
2022/03/05 00:11:23;;;;;;;0.20;0.20;;;-1.40;1.00;226.50;231333.00;;;;5071765;28;20725;-68
2022/03/05 00:13:51;;;;;;;0.20;0.20;;;-1.40;1.00;226.50;231333.00;;;;5072900;28;20201;-68
2022/03/05 00:16:19;;;;;;;0.20;0.20;;;-1.40;1.00;226.50;231333.00;;;;5090260;28;20220;-68
2022/03/05 00:18:49;;;;;;;0.13;0.13;;;-1.40;1.00;226.50;231333.00;;;;5082893;28;20267;-69
2022/03/05 00:21:18;;;;;;;0.20;0.20;;;-1.60;1.00;226.50;231333.00;;;;5074603;28;20682;-69
2022/03/05 00:23:46;;;;;;;0.13;0.13;;;-1.60;1.00;226.50;231333.00;;;;5088761;28;20200;-69
2022/03/05 00:26:14;;;;;;;0.20;0.20;;;-1.60;1.00;226.50;231333.00;;;;5080889;28;20205;-69
2022/03/05 00:28:42;;;;;;;0.20;0.20;;;-1.80;1.00;226.50;231333.00;;;;5087141;28;20193;-69
2022/03/05 00:31:10;;;;;;;0.10;0.10;;;-1.90;99.90;226.50;231333.00;;;;5081149;28;20764;-69
2022/03/05 00:33:38;;;;;;;0.20;0.20;;;-1.90;99.90;226.50;231333.00;;;;5076748;28;20190;-69
2022/03/05 00:36:08;;;;;;;0.20;0.20;;;-1.90;99.90;226.50;231333.00;;;;5083916;28;20690;-69
2022/03/05 00:38:36;;;;;;;0.10;0.10;;;-2.00;99.90;226.50;231333.00;;;;5068591;28;20201;-69
2022/03/05 00:41:04;;;;;;;0.20;0.20;;;-1.90;99.90;226.50;231333.00;;;;5069967;28;20619;-68
2022/03/05 00:43:32;;;;;;;0.20;0.20;;;-1.90;99.90;226.50;231333.00;;;;5068224;28;20612;-69
2022/03/05 00:46:00;;;;;;;0.20;0.20;;;-1.80;99.90;226.50;231333.00;;;;5070106;28;20206;-68
2022/03/05 00:48:28;;;;;;;0.20;0.20;;;-1.80;99.90;226.50;231333.00;;;;5073521;28;20186;-68
2022/03/05 00:50:56;;;;;;;0.20;0.20;;;-1.70;99.90;226.50;231333.00;;;;5074859;28;20727;-68
2022/03/05 00:53:26;;;;;;;0.20;0.20;;;-1.70;99.90;226.50;231333.00;;;;5075422;28;20201;-68
2022/03/05 00:55:54;;;;;;;0.13;0.13;;;-1.60;99.90;226.50;231333.00;;;;5075933;28;20209;-70
2022/03/05 00:58:21;;;;;;;0.20;0.20;;;-1.60;99.90;226.50;231333.00;;;;5077692;28;20197;-69
2022/03/05 01:00:52;;;;;;;0.20;0.20;;;-1.50;99.90;226.50;231333.00;;;;5075385;28;20198;-69
2022/03/05 01:03:22;;;;;;;0.20;0.20;;;-1.40;99.90;226.50;231333.00;;;;5072120;28;20966;-69
2022/03/05 01:05:51;;;;;;;0.10;0.10;;;-1.30;99.90;226.50;231333.00;;;;5072516;28;20682;-69
2022/03/05 01:08:19;;;;;;;0.20;0.20;;;-1.30;99.90;226.50;231333.00;;;;5077616;28;20210;-70
2022/03/05 01:10:48;;;;;;;0.20;0.20;;;-1.40;99.90;226.50;231333.00;;;;5079907;28;20186;-69
2022/03/05 01:13:16;;;;;;;0.10;0.10;;;-1.40;1.00;226.50;231333.00;;;;5083387;28;20212;-69
2022/03/05 01:15:45;;;;;;;0.20;0.20;;;-1.50;1.00;226.50;231333.00;;;;5089935;28;20214;-70
2022/03/05 01:18:13;;;;;;;0.20;0.20;;;-1.60;1.00;226.50;231333.00;;;;5082057;28;20635;-70
2022/03/05 01:20:41;;;;;;;0.17;0.17;;;-1.70;1.00;226.50;231333.00;;;;5089144;28;20201;-70
2022/03/05 01:23:09;;;;;;;0.10;0.10;;;-1.80;1.00;226.50;231333.00;;;;5086541;28;20666;-70
2022/03/05 01:25:37;;;;;;;0.20;0.20;;;-1.90;1.00;226.50;231333.00;;;;5081947;28;20814;-70
2022/03/05 01:28:06;;;;;;;0.20;0.20;;;-1.90;1.00;226.50;231333.00;;;;5091141;28;20196;-70
2022/03/05 01:30:34;;;;;;;0.20;0.20;;;-1.90;1.00;226.50;231333.00;;;;5085992;28;20920;-70
2022/03/05 01:33:02;;;;;;;0.13;0.13;;;-1.90;1.00;226.50;231333.00;;;;5104366;28;20234;-70
2022/03/05 01:35:31;;;;;;;0.20;0.20;;;-1.90;1.00;226.50;231333.00;;;;5083924;28;20212;-70
2022/03/05 01:37:59;;;;;;;0.10;0.10;;;-1.90;1.00;226.50;231333.00;;;;5083058;28;20190;-70
2022/03/05 01:40:27;;;;;;;0.20;0.20;;;-1.90;13.20;226.50;231333.00;;;;5093366;28;20201;-70
2022/03/05 01:42:55;;;;;;;0.10;0.10;;;-1.90;1.00;226.50;231333.00;;;;5093192;28;20644;-69
2022/03/05 01:45:25;;;;;;;0.20;0.20;;;-2.00;1.00;226.50;231333.00;;;;5082022;28;20597;-69
2022/03/05 01:47:54;;;;;;;0.20;0.20;;;-2.10;1.00;226.50;231333.00;;;;5073180;28;20185;-69
2022/03/05 01:50:22;;;;;;;0.20;0.20;;;-2.00;21.80;226.50;231333.00;;;;5073939;28;20549;-69
2022/03/05 01:52:50;;;;;;;0.15;0.15;;;-2.10;1.00;226.50;231333.00;;;;5087707;28;20630;-69
2022/03/05 01:55:19;;;;;;;0.17;0.17;;;-2.20;99.90;226.50;231333.00;;;;5091727;28;20705;-68
2022/03/05 01:57:47;;;;;;;0.20;0.20;;;-2.20;99.90;226.50;231333.00;;;;5084438;28;20247;-68
2022/03/05 02:00:16;;;;;;;0.20;0.20;;;-2.20;99.90;226.50;231333.00;;;;5071177;28;20228;-68
2022/03/05 02:02:47;;;;;;;0.20;0.20;;;-2.30;99.90;226.50;231333.00;;;;5072980;28;20206;-68
2022/03/05 02:05:16;;;;;;;0.13;0.13;;;-2.20;99.90;226.50;231333.00;;;;5076428;28;20213;-68
2022/03/05 02:07:45;;;;;;;0.20;0.20;;;-2.20;99.90;226.50;231333.00;;;;5077261;28;20208;-68
2022/03/05 02:10:14;;;;;;;0.20;0.20;;;-2.20;99.90;226.50;231333.00;;;;5075537;28;20190;-68
2022/03/05 02:12:42;;;;;;;0.20;0.20;;;-2.10;1.00;226.50;231333.00;;;;5073394;28;20209;-69
2022/03/05 02:15:11;;;;;;;0.20;0.20;;;-2.00;1.00;226.50;231333.00;;;;5074123;28;20190;-69
2022/03/05 02:17:39;;;;;;;0.20;0.20;;;-1.90;1.00;226.50;231333.00;;;;5074360;28;20197;-69
2022/03/05 02:20:10;;;;;;;0.20;0.20;;;-1.90;99.90;226.50;231333.00;;;;5071877;28;20197;-69
2022/03/05 02:22:42;;;;;;;0.20;0.20;;;-1.80;99.90;226.50;231333.00;;;;5072568;28;20579;-69
2022/03/05 02:25:10;;;;;;;0.20;0.20;;;-1.80;99.90;226.50;231333.00;;;;5071244;28;20247;-69
2022/03/05 02:27:38;;;;;;;0.20;0.20;;;-1.90;99.90;226.50;231333.00;;;;5070718;28;20197;-69
2022/03/05 02:30:08;;;;;;;0.20;0.20;;;-2.00;99.90;226.50;231333.00;;;;5072523;28;20194;-69
2022/03/05 02:32:37;;;;;;;0.20;0.20;;;-2.00;99.90;226.50;231333.00;;;;5071037;28;20563;-69
2022/03/05 02:35:06;;;;;;;0.20;0.20;;;-2.10;99.90;226.50;231333.00;;;;5072337;28;20539;-69
2022/03/05 02:37:34;;;;;;;0.20;0.20;;;-2.00;99.90;226.50;231333.00;;;;5071841;28;20282;-70
2022/03/05 02:40:05;;;;;;;0.10;0.10;;;-2.00;1.00;226.50;231333.00;;;;5072846;28;20190;-72
2022/03/05 02:42:33;;;;;;;0.20;0.20;;;-1.90;1.00;226.50;231333.00;;;;5076604;28;20231;-70
2022/03/05 02:45:01;;;;;;;0.20;0.20;;;-1.90;1.00;226.50;231333.00;;;;5078281;28;20205;-70
2022/03/05 02:47:29;;;;;;;0.20;0.20;;;-1.80;1.00;226.50;231333.00;;;;5070894;28;20189;-71
2022/03/05 02:49:57;;;;;;;0.20;0.20;;;-1.80;1.00;226.50;231333.00;;;;5077478;28;20186;-71
2022/03/05 02:52:25;;;;;;;0.20;0.20;;;-1.80;1.00;226.50;231333.00;;;;5078974;28;20236;-71
2022/03/05 02:54:53;;;;;;;0.20;0.20;;;-1.90;1.00;226.50;231333.00;;;;5075401;28;20271;-71
2022/03/05 02:57:22;;;;;;;0.20;0.20;;;-2.00;16.80;226.50;231333.00;;;;5071909;28;20236;-71
2022/03/05 02:59:50;;;;;;;0.20;0.20;;;-2.10;1.00;226.50;231333.00;;;;5075187;28;20663;-71
2022/03/05 03:02:19;;;;;;;0.20;0.20;;;-2.20;35.30;226.50;231333.00;;;;5089481;28;20209;-71
2022/03/05 03:04:47;;;;;;;0.20;0.20;;;-2.10;82.10;226.50;231333.00;;;;5072435;28;20287;-71
2022/03/05 03:07:16;;;;;;;0.20;0.20;;;-2.20;98.00;226.50;231333.00;;;;5094173;28;20189;-71
2022/03/05 03:09:43;;;;;;;0.20;0.20;;;-2.20;99.90;226.50;231333.00;;;;5088736;28;20201;-71
2022/03/05 03:12:11;;;;;;;0.20;0.20;;;-2.20;1.00;226.50;231333.00;;;;5096972;28;20292;-71
2022/03/05 03:14:41;;;;;;;0.20;0.20;;;-2.30;1.00;226.50;231333.00;;;;5078446;28;20193;-71
2022/03/05 03:17:10;;;;;;;0.20;0.20;;;-2.30;1.00;226.50;231333.00;;;;5079048;28;20217;-71
2022/03/05 03:19:38;;;;;;;0.20;0.20;;;-2.30;1.00;226.50;231333.00;;;;5072053;28;20271;-71
2022/03/05 03:22:06;;;;;;;0.20;0.20;;;-2.40;1.00;226.50;231333.00;;;;5071669;28;20271;-71
2022/03/05 03:24:34;;;;;;;0.20;0.20;;;-2.40;1.00;226.50;231333.00;;;;5082205;28;20561;-71
2022/03/05 03:27:02;;;;;;;0.20;0.20;;;-2.40;99.90;226.50;231333.00;;;;5082493;28;20194;-71
2022/03/05 03:29:30;;;;;;;0.20;0.20;;;-2.40;99.90;226.50;231333.00;;;;5082750;28;20667;-71
2022/03/05 03:32:01;;;;;;;0.20;0.20;;;-2.40;99.90;226.50;231333.00;;;;5075578;28;20229;-71
2022/03/05 03:34:29;;;;;;;0.20;0.20;;;-2.40;99.90;226.50;231333.00;;;;5071185;28;20741;-70
2022/03/05 03:36:57;;;;;;;0.30;0.30;;;-2.30;1.00;226.50;231333.00;;;;5090609;28;20217;-70
2022/03/05 03:39:25;;;;;;;0.20;0.20;;;-2.50;1.00;226.50;231333.00;;;;5081286;28;20194;-70
2022/03/05 03:41:53;;;;;;;0.20;0.20;;;-2.60;1.00;226.50;231333.00;;;;5089067;28;20685;-70
2022/03/05 03:44:21;;;;;;;0.20;0.20;;;-2.60;1.00;226.50;231333.00;;;;5088516;28;20735;-70
2022/03/05 03:46:49;;;;;;;0.20;0.20;;;-2.70;1.00;226.50;231333.00;;;;5075463;28;20619;-70
2022/03/05 03:49:19;;;;;;;0.20;0.20;;;-2.70;1.00;226.50;231333.00;;;;5080450;28;20239;-71
2022/03/05 03:51:47;;;;;;;0.20;0.20;;;-2.60;1.00;226.50;231333.00;;;;5071706;28;20210;-69
2022/03/05 03:54:15;;;;;;;0.30;0.30;;;-2.60;1.00;226.50;231333.00;;;;5072199;28;20725;-69
2022/03/05 03:56:43;;;;;;;0.20;0.20;;;-2.70;1.00;226.50;231333.00;;;;5075458;28;20217;-69
2022/03/05 03:59:11;;;;;;;0.28;0.28;;;-2.60;1.00;226.50;231333.00;;;;5068050;28;20186;-69
2022/03/05 04:01:39;;;;;;;0.20;0.20;;;-2.30;1.00;226.50;231333.00;;;;5063132;28;20279;-71
2022/03/05 04:04:07;;;;;;;0.20;0.20;;;-2.40;1.00;226.50;231333.00;;;;5076217;28;20194;-70
2022/03/05 04:09:18;;;;;;;0.20;0.20;;;-2.40;1.00;226.50;231333.00;;;;5067473;28;20194;-70
2022/03/05 04:11:46;;;;;;;0.17;0.17;;;-2.40;1.00;226.50;231333.00;;;;5080440;28;20219;-69
2022/03/05 04:14:14;;;;;;;0.20;0.20;;;-2.40;1.00;226.50;231333.00;;;;5090074;28;20189;-70
2022/03/05 04:16:42;;;;;;;0.20;0.20;;;-2.50;1.00;226.50;231333.00;;;;5081839;28;20221;-70
2022/03/05 04:19:10;;;;;;;0.20;0.20;;;-2.50;1.00;226.50;231333.00;;;;5073929;28;20212;-70
2022/03/05 04:21:39;;;;;;;0.20;0.20;;;-2.40;1.00;226.50;231333.00;;;;5072035;28;20226;-70
2022/03/05 04:24:08;;;;;;;0.20;0.20;;;-2.30;1.00;226.50;231333.00;;;;5070690;28;20501;-70
2022/03/05 04:26:36;;;;;;;0.20;0.20;;;-2.40;1.00;226.50;231333.00;;;;5071437;28;20205;-70
2022/03/05 04:29:04;;;;;;;0.20;0.20;;;-2.50;1.00;226.50;231333.00;;;;5067970;28;20193;-70
2022/03/05 04:31:32;;;;;;;0.20;0.20;;;-2.50;1.00;226.50;231333.00;;;;5076344;28;20225;-70
2022/03/05 04:34:00;;;;;;;0.20;0.20;;;-2.60;1.00;226.50;231333.00;;;;5089345;28;20197;-70
2022/03/05 04:36:28;;;;;;;0.20;0.20;;;-2.60;1.00;226.50;231333.00;;;;5084346;28;20238;-70
2022/03/05 04:38:58;;;;;;;0.20;0.20;;;-2.60;1.00;226.50;231333.00;;;;5070309;28;20243;-70
2022/03/05 04:41:25;;;;;;;0.20;0.20;;;-2.60;1.00;226.50;231333.00;;;;5076478;28;20209;-70
2022/03/05 04:43:53;;;;;;;0.20;0.20;;;-2.50;1.00;226.50;231333.00;;;;5074523;28;20243;-70
2022/03/05 04:46:22;;;;;;;0.20;0.20;;;-2.60;1.00;226.50;231333.00;;;;5074105;28;20201;-70
2022/03/05 04:48:50;;;;;;;0.20;0.20;;;-2.70;1.00;226.50;231333.00;;;;5089965;28;20207;-70
2022/03/05 04:51:18;;;;;;;0.20;0.20;;;-2.70;1.00;226.50;231333.00;;;;5087823;28;20201;-70
2022/03/05 04:53:46;;;;;;;0.20;0.20;;;-2.70;1.00;226.50;231333.00;;;;5093094;28;20224;-71
2022/03/05 04:56:16;;;;;;;0.20;0.20;;;-2.70;1.00;226.50;231333.00;;;;5074088;28;20185;-70
2022/03/05 04:58:44;;;;;;;0.20;0.20;;;-2.70;1.00;226.50;231333.00;;;;5070604;28;20343;-70
2022/03/05 05:01:12;;;;;;;0.20;0.20;;;-2.60;1.00;226.50;231333.00;;;;5072153;28;20722;-70
2022/03/05 05:03:40;;;;;;;0.20;0.20;;;-2.60;1.00;226.50;231333.00;;;;5071444;28;20202;-70
2022/03/05 05:06:08;;;;;;;0.20;0.20;;;-2.70;1.00;226.50;231333.00;;;;5073497;28;20197;-69
2022/03/05 05:08:36;;;;;;;0.20;0.20;;;-2.60;1.00;226.50;231333.00;;;;5073807;28;20217;-69
2022/03/05 05:11:05;;;;;;;0.20;0.20;;;-2.60;1.00;226.50;231333.00;;;;5075286;28;20212;-69
2022/03/05 05:13:35;;;;;;;0.25;0.25;;;-2.60;1.00;226.50;231333.00;;;;5073855;28;20415;-70
2022/03/05 05:16:03;;;;;;;0.20;0.20;;;-2.50;1.00;226.50;231333.00;;;;5073878;28;20194;-70
2022/03/05 05:18:32;;;;;;;0.20;0.20;;;-2.60;1.00;226.50;231333.00;;;;5072969;28;20221;-70
2022/03/05 05:21:00;;;;;;;0.20;0.20;;;-2.60;1.00;226.50;231333.00;;;;5073408;28;20278;-70
2022/03/05 05:23:29;;;;;;;0.20;0.20;;;-2.40;1.00;226.50;231333.00;;;;5074228;28;20193;-70
2022/03/05 05:25:57;;;;;;;0.20;0.20;;;-2.20;1.00;226.50;231333.00;;;;5071632;28;20189;-70
2022/03/05 05:28:25;;;;;;;0.20;0.20;;;-2.20;1.00;226.50;231333.00;;;;5073719;28;20221;-70
2022/03/05 05:30:54;;;;;;;0.20;0.20;;;-2.20;1.00;226.50;231333.00;;;;5084593;28;20201;-70
2022/03/05 05:33:23;;;;;;;0.20;0.20;;;-2.20;1.00;226.50;231333.00;;;;5086240;28;20201;-70
2022/03/05 05:35:51;;;;;;;0.20;0.20;;;-2.30;1.00;226.50;231333.00;;;;5081683;28;20194;-70
2022/03/05 05:38:18;;;;;;;0.20;0.20;;;-2.30;1.00;226.50;231333.00;;;;5074504;28;20217;-70
2022/03/05 05:40:46;;;;;;;0.20;0.20;;;-2.40;1.00;226.50;231333.00;;;;5090894;28;20747;-71
2022/03/05 05:43:14;;;;;;;0.20;0.20;;;-2.40;1.00;226.50;231333.00;;;;5081471;28;20568;-71
2022/03/05 05:45:42;;;;;;;0.20;0.20;;;-2.40;1.00;226.50;231333.00;;;;5079108;28;20263;-71
2022/03/05 05:48:12;;;;;;;0.20;0.20;;;-2.40;1.00;226.50;231333.00;;;;5074771;28;20806;-71
2022/03/05 05:50:42;;;;;;;0.20;0.20;;;-2.50;1.00;226.50;231333.00;;;;5073662;28;20285;-71
2022/03/05 05:53:10;;;;;;;0.20;0.20;;;-2.40;1.00;226.50;231333.00;;;;5089376;28;20189;-71
2022/03/05 05:55:38;;;;;;;0.20;0.20;;;-2.40;1.00;226.50;231333.00;;;;5093036;28;20711;-71
2022/03/05 05:58:06;;;;;;;0.20;0.20;;;-2.40;1.00;226.50;231333.00;;;;5083048;28;20226;-71
2022/03/05 06:00:34;;;;;;;0.20;0.20;;;-2.40;1.00;226.50;231333.00;;;;5081898;28;20209;-71
2022/03/05 06:03:02;;;;;;;0.20;0.20;;;-2.50;1.00;226.50;231333.00;;;;5073110;28;20216;-71
2022/03/05 06:05:32;;;;;;;0.20;0.20;;;-2.50;1.00;226.50;231333.00;;;;5088601;28;20194;-70
2022/03/05 06:07:59;;;;;;;0.20;0.20;;;-2.40;1.00;226.50;231333.00;;;;5088119;28;20197;-70
2022/03/05 06:10:28;;;;;;;0.20;0.20;;;-2.40;1.00;226.50;231333.00;;;;5079230;28;20189;-70
2022/03/05 06:12:56;;;;;;;0.20;0.20;;;-2.40;1.00;226.50;231333.00;;;;5084752;28;20270;-71
2022/03/05 06:15:24;;;;;;;0.20;0.20;;;-2.40;1.00;226.50;231333.00;;;;5091543;28;20678;-71
2022/03/05 06:17:54;;;;;;;0.20;0.20;;;-2.40;1.00;226.50;231333.00;;;;5091486;28;20227;-71
2022/03/05 06:20:22;;;;;;;0.20;0.20;;;-2.40;1.00;226.50;231333.00;;;;5086756;28;20612;-70
2022/03/05 06:22:51;;;;;;;0.20;0.20;;;-2.30;1.00;226.50;231333.00;;;;5078625;28;20209;-70
2022/03/05 06:25:20;;;;;;;0.20;0.20;;;-2.20;1.00;226.50;231333.00;;;;5077876;28;20189;-71
2022/03/05 06:27:48;;;;;;;0.20;0.20;;;-2.20;1.00;226.50;231333.00;;;;5086380;28;20285;-71
2022/03/05 06:30:16;;;;;;;0.20;0.20;;;-2.40;1.00;226.50;231333.00;;;;5072201;28;20263;-70
2022/03/05 06:32:44;;;;;;;0.20;0.20;;;-2.40;1.00;226.50;231333.00;;;;5082722;28;20259;-70
2022/03/05 06:35:12;;;;;;;0.20;0.20;;;-2.40;1.00;226.50;231333.00;;;;5081046;28;20211;-70
2022/03/05 06:37:40;;;;;;;0.20;0.20;;;-2.30;1.00;226.50;231333.00;;;;5083595;28;20202;-71
2022/03/05 06:40:12;;;;;;;0.20;0.20;;;-2.30;1.00;226.50;231333.00;;;;5076257;28;20186;-70
2022/03/05 06:42:41;;;;;;;0.20;0.20;;;-2.40;1.00;226.50;231333.00;;;;5073407;28;20754;-70
2022/03/05 06:45:10;;;;;;;0.20;0.20;;;-2.40;1.00;226.50;231333.00;;;;5072344;28;20685;-69
2022/03/05 06:47:38;;;;;;;0.20;0.20;;;-2.30;1.00;226.50;231333.00;;;;5071848;28;20259;-71
2022/03/05 06:50:10;;;;;;;0.20;0.20;;;-2.40;1.00;226.50;231333.00;;;;5074091;28;20190;-72
2022/03/05 06:52:38;;;;;;;0.20;0.20;;;-2.40;1.00;226.50;231333.00;;;;5072052;28;20222;-70
2022/03/05 06:55:13;;;;;;;0.20;0.20;;;-2.40;1.00;226.50;231333.00;;;;5071377;28;20216;-72
2022/03/05 06:57:42;;;;;;;0.20;0.20;;;-2.50;1.00;226.50;231333.00;;;;5075181;28;20305;-70
2022/03/05 07:00:11;;;;;;;0.20;0.20;;;-2.50;1.00;226.50;231333.00;;;;5074681;28;20192;-70
2022/03/05 07:02:39;;;;;;;0.20;0.20;;;-2.60;1.00;226.50;231333.00;;;;5075522;28;20217;-68
2022/03/05 07:05:09;;;;;;;0.20;0.20;;;-2.50;1.00;226.50;231333.00;;;;5074789;28;20205;-70
2022/03/05 07:07:37;;;;;;;0.20;0.20;;;-2.50;1.00;226.50;231333.00;;;;5088958;28;20603;-69
2022/03/05 07:10:07;;;;;;;0.20;0.20;;;-2.50;1.00;226.50;231333.00;;;;5083755;28;20434;-69
2022/03/05 07:12:37;;;;;;;0.20;0.20;;;-2.50;1.00;226.50;231333.00;;;;5073259;28;20311;-69
2022/03/05 07:15:07;;;;;;;0.13;0.13;;;-2.40;1.00;226.50;231333.00;;;;5065662;28;20181;-70
2022/03/05 07:17:35;;;;;;;0.20;0.20;;;-2.40;1.00;226.50;231333.00;;;;5070054;28;20201;-71
2022/03/05 07:20:05;;;;;;;0.20;0.20;;;-2.40;1.00;226.50;231333.00;;;;5071547;28;20259;-71
2022/03/05 07:22:33;;;;;;;0.20;0.20;;;-2.40;1.00;226.50;231333.00;;;;5070351;28;20258;-70
2022/03/05 07:25:01;;;;;;;0.20;0.20;;;-2.40;1.00;226.50;231333.00;;;;5065451;28;20203;-70
2022/03/05 07:27:30;;;;;;;0.20;0.20;;;-2.40;1.00;226.50;231333.00;;;;5068969;28;20213;-71
2022/03/05 07:29:59;;;;;;;0.20;0.20;;;-2.20;1.00;226.50;231333.00;;;;5067603;28;20190;-70
2022/03/05 07:32:27;;;;;;;0.20;0.20;;;-2.20;1.00;226.50;231333.00;;;;5070272;28;20934;-70
2022/03/05 07:34:55;;;;;;;0.20;0.20;;;-2.10;1.00;226.50;231333.00;;;;5068536;28;20194;-70
2022/03/05 07:37:23;;;;;;;0.20;0.20;;;-2.10;1.00;226.50;231333.00;;;;5067628;28;20197;-70
2022/03/05 07:39:51;;;;;;;0.20;0.20;;;-2.00;1.00;226.50;231333.00;;;;5069142;28;20209;-70
2022/03/05 07:42:19;;;;;;;0.20;0.20;;;-1.80;1.00;226.50;231333.00;;;;5069495;28;20209;-69
2022/03/05 07:44:47;;;;;;;0.20;0.20;;;-1.80;1.00;226.50;231333.00;;;;5070074;28;20566;-70
2022/03/05 07:47:16;;;;;;;0.20;0.20;;;-1.70;1.00;226.50;231333.00;;;;5068840;28;20197;-70
2022/03/05 07:49:44;;;;;;;0.20;0.20;;;-1.60;1.00;226.50;231333.00;;;;5070042;28;20551;-70
2022/03/05 07:52:12;;;;;;;0.20;0.20;;;-1.60;1.00;226.50;231333.00;;;;5070250;28;20560;-70
2022/03/05 07:54:40;;;;;;;0.20;0.20;;;-1.50;1.00;226.50;231333.00;;;;5066979;28;20716;-70
2022/03/05 07:57:08;;;;;;;0.10;0.10;;;-1.30;1.00;226.50;231333.00;;;;5069944;28;20193;-70
2022/03/05 07:59:36;;;;;;;0.17;0.17;;;-1.40;1.00;226.50;231333.00;;;;5066964;28;20225;-70
2022/03/05 08:02:05;;;;;;;0.20;0.20;;;-1.50;1.00;226.50;231333.00;;;;5073232;28;20209;-70
2022/03/05 08:04:35;;;;;;;0.20;0.20;;;-1.30;1.00;226.50;231333.00;;;;5082699;28;20273;-70
2022/03/05 08:07:24;;;;;;;0.20;0.20;;;-1.10;1.00;226.50;231333.00;;;;5090593;28;20189;-70
2022/03/05 08:09:52;;;;;;;0.10;0.10;;;-1.10;1.00;226.50;231333.00;;;;5090649;28;20205;-70
2022/03/05 08:12:20;;;;;;;0.15;0.15;;;-1.00;1.00;226.50;231333.00;;;;5076204;28;20213;-70
2022/03/05 08:14:48;;;;;;;0.20;0.20;;;-1.00;1.00;226.50;231333.00;;;;5084515;28;20247;-70
2022/03/05 08:17:16;;;;;;;0.20;0.20;;;-0.90;1.00;226.50;231333.00;;;;5090502;28;20235;-70
2022/03/05 08:19:45;;;;;;;0.20;0.20;;;-0.80;1.00;226.50;231333.00;;;;5077233;28;20214;-70
2022/03/05 08:22:21;;;;;;;0.20;0.20;;;-0.70;1.00;226.50;231333.00;;;;5083540;28;20209;-70
2022/03/05 08:24:49;;;;;;;0.20;0.20;;;-0.50;1.00;226.50;231333.00;;;;5075319;28;20197;-70
2022/03/05 08:27:17;;;;;;;0.20;0.20;;;-0.40;99.90;226.50;231333.00;;;;5074040;28;20691;-71
2022/03/05 08:29:45;;;;;;;0.20;0.20;;;-0.20;99.90;-2.30;93854.00;;;;5077581;28;20201;-70
2022/03/05 08:32:13;;;;;;;0.20;0.20;;;-0.40;99.90;226.50;162213.00;;;;5075626;28;20267;-70
2022/03/05 08:34:41;;;;;;;0.20;0.20;;;-0.40;99.90;226.50;231333.00;;;;5075070;28;20630;-70
2022/03/05 08:37:11;;;;;;;0.20;0.20;;;-0.30;99.90;226.50;231333.00;;;;5076158;28;20241;-70
2022/03/05 08:39:39;;;;;;;0.20;0.20;;;-0.10;99.90;226.50;231333.00;;;;5074180;28;20218;-69
2022/03/05 08:42:08;;;;;;;0.17;0.17;;;0.00;99.90;226.50;231333.00;;;;5078150;28;20213;-69
2022/03/05 08:44:36;;;;;;;0.10;0.10;;;0.10;99.90;226.50;231333.00;;;;5084313;28;20444;-70
2022/03/05 08:47:05;;;;;;;0.20;0.20;;;0.20;99.90;226.50;231333.00;;;;5079221;28;20674;-73
2022/03/05 08:49:33;;;;;;;0.20;0.20;;;0.20;99.90;226.50;231333.00;;;;5076533;28;20246;-70
2022/03/05 08:52:01;;;;;;;0.10;0.10;;;0.30;99.90;226.50;231333.00;;;;5073358;28;20221;-71
2022/03/05 08:54:31;;;;;;;0.17;0.17;;;0.20;73.20;226.50;231333.00;;;;5079575;28;20198;-71
2022/03/05 08:56:59;;;;;;;0.20;0.20;;;0.10;51.60;226.50;231333.00;;;;5076113;28;20189;-71
2022/03/05 08:59:27;;;;;;;0.20;0.20;;;0.00;84.50;226.50;231333.00;;;;5071925;28;20691;-71
2022/03/05 09:01:55;;;;;;;0.10;0.10;;;0.30;99.90;226.50;231333.00;;;;5080023;28;20241;-72
2022/03/05 09:04:24;;;;;;;0.10;0.10;;;0.40;82.10;226.50;231333.00;;;;5079683;28;20196;-71
2022/03/05 09:06:53;;;;;;;0.17;0.17;;;0.40;1.00;226.50;231333.00;;;;5075634;28;20248;-71
2022/03/05 09:09:40;;;;;;;0.10;0.10;;;0.40;1.00;226.50;231333.00;;;;5071043;28;20205;-71
2022/03/05 09:12:10;;;;;;;0.10;0.10;;;0.40;1.00;226.50;231333.00;;;;5079525;28;20683;-71
2022/03/05 09:14:38;;;;;;;0.10;0.10;;;0.40;1.00;226.50;231333.00;;;;5090641;28;20193;-71
2022/03/05 09:17:06;;;;;;;0.10;0.10;;;0.50;1.00;226.50;231333.00;;;;5086994;28;20244;-71
2022/03/05 09:19:35;;;;;;;0.20;0.20;;;0.50;1.00;226.50;231333.00;;;;5090689;28;20705;-70
2022/03/05 09:22:06;;;;;;;0.10;0.10;;;0.60;1.00;226.50;231333.00;;;;5082803;28;20218;-70
2022/03/05 09:24:34;;;;;;;0.10;0.10;;;0.60;1.00;226.50;231333.00;;;;5090806;28;20205;-70
2022/03/05 09:27:04;;;;;;;0.20;0.20;;;0.80;1.00;226.50;231333.00;;;;5081984;28;20197;-71
2022/03/05 09:29:32;;;;;;;0.10;0.10;;;0.90;1.00;226.50;231333.00;;;;5073408;28;20232;-71
2022/03/05 09:32:01;;;;;;;0.10;0.10;;;1.00;1.00;226.50;231333.00;;;;5084582;28;20213;-70
2022/03/05 09:34:29;;;;;;;0.20;0.20;;;1.10;1.00;226.50;231333.00;;;;5093375;28;20220;-70
2022/03/05 09:36:57;;;;;;;0.10;0.10;;;1.20;1.00;226.50;231333.00;;;;5080419;28;20729;-70
2022/03/05 09:39:25;;;;;;;0.10;0.10;;;1.20;1.00;226.50;231333.00;;;;5080742;28;20194;-70
2022/03/05 09:41:55;;;;;;;0.10;0.10;;;1.30;1.00;226.50;231333.00;;;;5076979;28;20261;-70
2022/03/05 09:44:24;;;;;;;0.10;0.10;;;1.30;99.90;226.50;231333.00;;;;5078831;28;20220;-70
2022/03/05 09:46:53;;;;;;;0.10;0.10;;;1.30;99.90;226.50;231333.00;;;;5082565;28;20197;-69
2022/03/05 09:49:21;;;;;;;0.10;0.10;;;1.40;99.90;226.50;231333.00;;;;5072803;28;20190;-69
2022/03/05 09:51:49;;;;;;;0.20;0.20;;;1.50;1.00;226.50;231333.00;;;;5080746;28;20439;-70
2022/03/05 09:54:17;;;;;;;0.10;0.10;;;1.60;1.00;226.50;231333.00;;;;5089429;28;20243;-70
2022/03/05 09:56:45;;;;;;;0.10;0.10;;;1.60;1.00;226.50;161991.00;;;;5081068;28;20190;-70
2022/03/05 09:59:14;;;;;;;0.10;0.10;;;1.80;1.00;226.50;231333.00;;;;5071809;28;20186;-70
2022/03/05 10:01:43;;;;;;;0.10;0.10;;;1.80;1.00;226.50;231333.00;;;;5071399;28;20221;-70
2022/03/05 10:04:20;;;;;;;0.10;0.10;;;1.90;1.00;226.50;231333.00;;;;5071782;28;20262;-70
2022/03/05 10:07:11;;;;;;;0.10;0.10;;;1.90;1.00;226.50;231333.00;;;;5072091;28;20737;-70
2022/03/05 10:09:43;;;;;;;0.10;0.10;;;2.00;99.90;226.50;231333.00;;;;5070805;28;20627;-70
2022/03/05 10:12:30;;;;;;;0.10;0.10;;;2.10;99.90;226.50;231333.00;;;;5072979;28;20221;-70
2022/03/05 10:15:08;;;;;;;0.10;0.10;;;2.20;99.90;226.50;231333.00;;;;5072804;28;20194;-70
2022/03/05 10:17:56;;;;;;;0.10;0.10;;;2.40;20.00;226.50;231333.00;;;;5071322;28;20494;-70
2022/03/05 10:20:28;;;;;;;0.10;0.10;;;2.40;1.00;226.50;231333.00;;;;5072063;28;20598;-70
2022/03/05 10:23:00;;;;;;;0.10;0.10;;;2.50;1.00;226.50;231333.00;;;;5072596;28;20342;-70
2022/03/05 10:25:37;;;;;;;0.10;0.10;;;2.60;1.00;226.50;231333.00;;;;5070655;28;20297;-71
2022/03/05 10:28:09;;;;;;;0.10;0.10;;;2.80;1.00;226.50;231333.00;;;;5072598;28;20657;-70
2022/03/05 10:30:39;;;;;;;0.10;0.10;;;3.00;1.00;226.50;231333.00;;;;5073357;28;20212;-70
2022/03/05 10:33:24;;;;;;;0.13;0.13;;;3.10;1.00;226.50;231333.00;;;;5073403;28;20205;-70
2022/03/05 10:35:52;;;;;;;0.10;0.10;;;3.30;1.00;226.50;231333.00;;;;5070161;28;20194;-70
2022/03/05 10:38:20;;;;;;;0.10;0.10;;;3.40;1.00;226.50;231333.00;;;;5075648;28;20202;-70
2022/03/05 10:40:55;;;;;;;0.10;0.10;;;3.40;1.00;226.50;231333.00;;;;5075770;28;20217;-70
2022/03/05 10:43:24;;;;;;;0.10;0.10;;;3.50;1.00;226.50;231333.00;;;;5074356;28;20197;-70
2022/03/05 10:45:55;;;;;;;0.10;0.10;;;3.40;1.00;226.50;231333.00;;;;5069305;28;20572;-71
2022/03/05 10:48:31;;;;;;;0.10;0.10;;;3.20;99.90;226.50;231333.00;;;;5072727;28;20251;-70
2022/03/05 10:51:02;;;;;;;0.10;0.10;;;3.30;1.00;226.50;231333.00;;;;5066602;28;20201;-70
2022/03/05 10:53:39;;;;;;;0.10;0.10;;;3.40;1.00;226.50;231333.00;;;;5070913;28;20564;-70
2022/03/05 10:56:26;;;;;;;0.10;0.10;;;3.40;1.00;226.50;231333.00;;;;5072901;28;20194;-70
2022/03/05 10:59:00;;;;;;;0.10;0.10;;;3.50;1.00;226.50;231333.00;;;;5082083;28;20200;-70